Time;durP1;ratioP1;P1;durP2;ratioP2;P2;SDS_P1;SDS_P2;PMS_P1;PMS_P2;Temp;Humidity;BMP_temperature;BMP_pressure;BME280_temperature;BME280_humidity;BME280_pressure;Samples;Min_cycle;Max_cycle;Signal;HPM_P1;HPM_P2
2021/10/06 00:01:06;;;;;;;2.55;0.55;;;21.30;55.30;;;;;;5053915;28;20505;-62
2021/10/06 00:03:31;;;;;;;2.95;0.68;;;21.30;55.30;;;;;;5053898;28;20057;-63
2021/10/06 00:05:57;;;;;;;3.35;0.70;;;21.30;55.10;;;;;;5054346;28;20063;-64
2021/10/06 00:08:23;;;;;;;3.10;0.70;;;21.20;55.00;;;;;;5054933;28;20054;-62
2021/10/06 00:10:49;;;;;;;2.65;0.60;;;21.30;55.30;;;;;;5055333;28;20063;-63
2021/10/06 00:13:15;;;;;;;4.22;0.70;;;21.30;55.20;;;;;;5055586;28;20719;-62
2021/10/06 00:15:42;;;;;;;2.10;0.50;;;21.30;55.20;;;;;;5055384;28;20049;-63
2021/10/06 00:18:08;;;;;;;4.75;0.82;;;21.20;55.10;;;;;;5054366;28;20046;-62
2021/10/06 00:20:33;;;;;;;3.13;0.60;;;21.30;55.10;;;;;;5052669;28;20044;-62
2021/10/06 00:22:59;;;;;;;3.60;0.98;;;21.30;55.20;;;;;;5054759;28;20515;-62
2021/10/06 00:25:25;;;;;;;3.03;0.60;;;21.30;55.20;;;;;;5054249;28;20044;-62
2021/10/06 00:27:51;;;;;;;3.42;0.70;;;21.30;55.10;;;;;;5051093;28;20044;-62
2021/10/06 00:30:16;;;;;;;2.00;0.60;;;21.30;55.10;;;;;;5037983;28;20143;-63
2021/10/06 00:32:42;;;;;;;2.50;0.60;;;21.30;55.00;;;;;;5053379;28;20029;-62
2021/10/06 00:35:09;;;;;;;2.38;0.50;;;21.30;55.20;;;;;;5051435;28;20064;-62
2021/10/06 00:37:34;;;;;;;4.32;0.70;;;21.30;55.10;;;;;;5054897;28;20053;-62
2021/10/06 00:40:01;;;;;;;4.05;0.70;;;21.30;55.20;;;;;;5056106;28;20048;-62
2021/10/06 00:42:27;;;;;;;3.13;0.80;;;21.30;55.00;;;;;;5052837;28;20535;-62
2021/10/06 00:44:52;;;;;;;2.97;0.80;;;21.30;55.00;;;;;;5052911;28;20037;-63
2021/10/06 00:47:18;;;;;;;3.13;0.63;;;21.30;55.00;;;;;;5054476;28;20231;-62
2021/10/06 00:49:44;;;;;;;3.15;0.57;;;21.30;55.00;;;;;;5055400;28;20044;-62
2021/10/06 00:52:14;;;;;;;3.08;0.60;;;21.30;55.00;;;;;;5053069;28;20048;-62
2021/10/06 00:54:41;;;;;;;3.78;0.75;;;21.30;55.10;;;;;;5054429;28;20689;-62
2021/10/06 00:57:06;;;;;;;3.53;0.55;;;21.30;55.00;;;;;;5053011;28;20510;-63
2021/10/06 00:59:33;;;;;;;3.38;0.70;;;21.30;55.00;;;;;;5054323;28;20044;-63
2021/10/06 01:01:58;;;;;;;2.60;0.60;;;21.20;54.90;;;;;;5053319;28;20049;-63
2021/10/06 01:04:24;;;;;;;2.63;0.60;;;21.30;55.10;;;;;;5054456;28;20114;-63
2021/10/06 01:06:50;;;;;;;2.55;0.60;;;21.20;54.90;;;;;;5053061;28;20033;-62
2021/10/06 01:09:15;;;;;;;3.10;0.70;;;21.20;54.90;;;;;;5050523;28;20571;-63
2021/10/06 01:11:41;;;;;;;2.30;0.50;;;21.20;54.80;;;;;;5053340;28;20036;-62
2021/10/06 01:14:08;;;;;;;3.67;0.77;;;21.30;55.60;;;;;;5053513;28;20409;-62
2021/10/06 01:16:34;;;;;;;4.28;0.57;;;21.30;55.10;;;;;;5052686;28;20068;-62
2021/10/06 01:19:00;;;;;;;3.17;0.68;;;21.20;54.80;;;;;;5052352;28;20037;-62
2021/10/06 01:21:26;;;;;;;3.35;0.63;;;21.20;54.90;;;;;;5053491;28;20033;-62
2021/10/06 01:23:54;;;;;;;3.97;0.70;;;21.30;55.00;;;;;;5053557;28;20040;-62
2021/10/06 01:26:20;;;;;;;1.95;0.40;;;21.20;54.90;;;;;;5055893;28;20174;-62
2021/10/06 01:28:52;;;;;;;3.92;0.60;;;21.20;54.90;;;;;;5051606;28;20045;-62
2021/10/06 01:31:18;;;;;;;3.15;0.60;;;21.30;55.00;;;;;;5055081;28;20769;-63
2021/10/06 01:33:44;;;;;;;4.85;0.82;;;21.20;54.90;;;;;;5053705;28;20096;-62
2021/10/06 01:36:10;;;;;;;5.15;0.77;;;21.20;54.90;;;;;;5054668;28;20043;-61
2021/10/06 01:38:37;;;;;;;3.63;0.60;;;21.20;54.80;;;;;;5058044;28;20079;-62
2021/10/06 01:41:03;;;;;;;3.67;0.60;;;21.20;54.80;;;;;;5055880;28;20049;-62
2021/10/06 01:43:29;;;;;;;4.13;0.73;;;21.20;54.70;;;;;;5056048;28;20497;-61
2021/10/06 01:45:56;;;;;;;3.95;0.70;;;21.20;54.90;;;;;;5057606;28;20600;-63
2021/10/06 01:48:22;;;;;;;4.05;0.70;;;21.20;54.90;;;;;;5057223;28;20041;-62
2021/10/06 01:50:47;;;;;;;3.08;0.75;;;21.20;54.80;;;;;;5057937;28;20047;-63
2021/10/06 01:53:15;;;;;;;2.90;0.68;;;21.20;55.40;;;;;;5056317;28;20040;-63
2021/10/06 01:55:43;;;;;;;2.58;0.60;;;21.30;55.00;;;;;;5057824;28;20048;-63
2021/10/06 01:58:19;;;;;;;4.13;0.65;;;21.20;54.80;;;;;;5056151;28;20075;-62
2021/10/06 02:00:48;;;;;;;2.45;0.60;;;21.20;54.70;;;;;;5055629;28;20056;-63
2021/10/06 02:03:14;;;;;;;2.88;0.50;;;21.20;54.60;;;;;;5055568;28;20041;-63
2021/10/06 02:05:40;;;;;;;2.58;0.50;;;21.20;54.80;;;;;;5057932;28;20174;-63
2021/10/06 02:08:06;;;;;;;3.40;0.73;;;21.30;55.00;;;;;;5056046;28;20094;-63
2021/10/06 02:10:36;;;;;;;2.83;0.60;;;21.20;54.80;;;;;;5055216;28;20041;-63
2021/10/06 02:13:01;;;;;;;2.45;0.55;;;21.20;54.70;;;;;;5059628;28;20048;-63
2021/10/06 02:15:27;;;;;;;3.22;0.63;;;21.30;54.90;;;;;;5054777;28;20041;-62
2021/10/06 02:17:53;;;;;;;3.03;0.50;;;21.20;54.90;;;;;;5055399;28;20044;-63
2021/10/06 02:20:19;;;;;;;3.08;0.45;;;21.30;55.00;;;;;;5055660;28;20051;-62
2021/10/06 02:22:45;;;;;;;3.08;0.70;;;21.20;54.80;;;;;;5054539;28;20533;-62
2021/10/06 02:25:11;;;;;;;3.30;0.60;;;21.20;54.70;;;;;;5057744;28;20040;-63
2021/10/06 02:27:37;;;;;;;1.45;0.40;;;21.20;54.70;;;;;;5053730;28;20508;-63
2021/10/06 02:30:05;;;;;;;3.53;0.70;;;21.20;54.80;;;;;;5055120;28;20049;-63
2021/10/06 02:32:30;;;;;;;2.22;0.43;;;21.20;54.70;;;;;;5055309;28;20264;-63
2021/10/06 02:34:57;;;;;;;1.45;0.30;;;21.20;54.70;;;;;;5057551;28;20914;-63
2021/10/06 02:37:22;;;;;;;2.95;0.60;;;21.20;54.60;;;;;;5056206;28;20028;-61
2021/10/06 02:39:48;;;;;;;1.85;0.43;;;21.20;54.50;;;;;;5055195;28;20098;-62
2021/10/06 02:42:14;;;;;;;3.97;0.80;;;21.20;54.70;;;;;;5053015;28;20032;-62
2021/10/06 02:44:39;;;;;;;3.63;0.60;;;21.20;54.60;;;;;;5055692;28;20098;-62
2021/10/06 02:47:05;;;;;;;2.17;0.50;;;21.20;54.60;;;;;;5053116;28;20037;-63
2021/10/06 02:49:31;;;;;;;3.20;0.50;;;21.20;54.60;;;;;;5056934;28;20090;-63
2021/10/06 02:51:57;;;;;;;3.38;0.80;;;21.20;54.70;;;;;;5055267;28;20136;-63
2021/10/06 02:54:23;;;;;;;3.17;0.55;;;21.20;54.50;;;;;;5055463;28;20167;-64
2021/10/06 02:56:48;;;;;;;2.75;0.63;;;21.20;55.20;;;;;;5052897;28;20447;-63
2021/10/06 02:59:14;;;;;;;3.13;0.60;;;21.20;54.50;;;;;;5056702;28;20044;-63
2021/10/06 03:01:40;;;;;;;3.88;0.70;;;21.20;54.50;;;;;;5052976;28;20091;-63
2021/10/06 03:04:05;;;;;;;3.80;0.60;;;21.20;54.60;;;;;;5055841;28;20632;-62
2021/10/06 03:06:31;;;;;;;3.53;0.70;;;21.20;54.40;;;;;;5054911;28;20051;-63
2021/10/06 03:08:57;;;;;;;2.92;0.60;;;21.20;54.50;;;;;;5055845;28;20469;-63
2021/10/06 03:11:23;;;;;;;2.55;0.70;;;21.20;54.50;;;;;;5057467;28;20051;-63
2021/10/06 03:13:49;;;;;;;2.25;0.60;;;21.20;54.60;;;;;;5052920;28;20048;-64
2021/10/06 03:16:14;;;;;;;3.67;0.80;;;21.30;54.80;;;;;;5055033;28;20123;-63
2021/10/06 03:18:40;;;;;;;3.83;0.80;;;21.20;54.70;;;;;;5056508;28;20040;-63
2021/10/06 03:21:05;;;;;;;3.20;0.88;;;21.20;54.40;;;;;;5056016;28;20589;-63
2021/10/06 03:23:33;;;;;;;3.22;0.75;;;21.20;54.60;;;;;;5054841;28;20090;-63
2021/10/06 03:25:58;;;;;;;2.90;0.70;;;21.20;54.50;;;;;;5055334;28;20065;-63
2021/10/06 03:28:24;;;;;;;3.30;0.80;;;21.20;54.50;;;;;;5057180;28;20094;-61
2021/10/06 03:30:50;;;;;;;4.45;0.77;;;21.20;54.60;;;;;;5053795;28;20589;-63
2021/10/06 03:33:16;;;;;;;2.17;0.50;;;21.20;54.70;;;;;;5056073;28;20048;-61
2021/10/06 03:35:41;;;;;;;2.40;0.60;;;21.20;54.60;;;;;;5054585;28;20051;-62
2021/10/06 03:38:07;;;;;;;3.92;0.70;;;21.20;54.60;;;;;;5057735;28;20131;-62
2021/10/06 03:40:33;;;;;;;3.75;0.82;;;21.20;54.60;;;;;;5055772;28;20044;-62
2021/10/06 03:42:59;;;;;;;3.85;0.80;;;21.20;54.50;;;;;;5054224;28;20044;-63
2021/10/06 03:45:24;;;;;;;3.40;0.85;;;21.20;54.80;;;;;;5056098;28;20079;-63
2021/10/06 03:47:50;;;;;;;2.45;0.80;;;21.20;54.50;;;;;;5054494;28;20037;-62
2021/10/06 03:50:18;;;;;;;2.80;0.60;;;21.20;54.50;;;;;;5056073;28;20037;-63
2021/10/06 03:52:44;;;;;;;3.10;0.80;;;21.20;54.50;;;;;;5053774;28;20029;-63
2021/10/06 03:55:11;;;;;;;4.35;0.90;;;21.20;54.60;;;;;;5055336;28;20039;-62
2021/10/06 03:57:38;;;;;;;4.30;0.98;;;21.20;54.60;;;;;;5052867;28;20029;-62
2021/10/06 04:00:08;;;;;;;2.70;0.90;;;21.20;54.50;;;;;;5052403;28;20053;-62
2021/10/06 04:02:34;;;;;;;5.57;0.88;;;21.20;54.40;;;;;;5053611;28;20037;-62
2021/10/06 04:04:59;;;;;;;2.97;0.80;;;21.30;54.80;;;;;;5054925;28;20086;-63
2021/10/06 04:07:25;;;;;;;5.57;0.70;;;21.20;54.50;;;;;;5056058;28;20036;-63
2021/10/06 04:09:51;;;;;;;5.55;0.90;;;21.20;54.60;;;;;;5054975;28;20044;-63
2021/10/06 04:12:17;;;;;;;7.88;1.45;;;21.20;54.80;;;;;;5053906;28;20076;-63
2021/10/06 04:14:42;;;;;;;11.93;1.45;;;21.20;55.20;;;;;;5053613;28;20045;-62
2021/10/06 04:17:08;;;;;;;12.32;1.40;;;21.20;55.80;;;;;;5053785;28;20049;-62
2021/10/06 04:19:34;;;;;;;11.32;1.35;;;21.20;55.20;;;;;;5052720;28;20037;-63
2021/10/06 04:21:59;;;;;;;9.30;1.27;;;21.20;55.10;;;;;;5051994;28;20102;-62
2021/10/06 04:24:25;;;;;;;6.68;1.10;;;21.20;55.00;;;;;;5053013;28;20036;-63
2021/10/06 04:26:51;;;;;;;8.52;1.58;;;21.20;55.00;;;;;;5052839;28;20063;-62
2021/10/06 04:29:16;;;;;;;10.30;1.58;;;21.20;55.00;;;;;;5055783;28;20094;-62
2021/10/06 04:31:42;;;;;;;9.90;1.20;;;21.20;54.90;;;;;;5054439;28;20094;-62
2021/10/06 04:34:07;;;;;;;7.57;1.40;;;21.20;54.80;;;;;;5052557;28;20040;-63
2021/10/06 04:36:33;;;;;;;6.50;1.02;;;21.20;54.90;;;;;;5052894;28;20040;-62
2021/10/06 04:38:59;;;;;;;9.55;1.10;;;21.20;54.80;;;;;;5051069;28;20064;-62
2021/10/06 04:41:24;;;;;;;4.53;0.90;;;21.20;54.70;;;;;;5052441;28;20048;-61
2021/10/06 04:43:50;;;;;;;6.88;1.05;;;21.20;54.60;;;;;;5052937;28;20040;-62
2021/10/06 04:46:18;;;;;;;5.47;1.10;;;21.20;54.50;;;;;;5054163;28;20048;-62
2021/10/06 04:48:47;;;;;;;7.22;1.40;;;21.20;54.50;;;;;;5054081;28;20048;-63
2021/10/06 04:51:14;;;;;;;5.90;1.15;;;21.30;55.80;;;;;;5053032;28;20036;-64
2021/10/06 04:53:40;;;;;;;11.20;2.13;;;21.20;55.00;;;;;;5055789;28;20042;-63
2021/10/06 04:56:05;;;;;;;13.95;2.67;;;21.30;55.70;;;;;;5052671;28;20045;-63
2021/10/06 04:58:31;;;;;;;18.33;3.03;;;21.30;55.70;;;;;;5055673;28;20067;-62
2021/10/06 05:01:00;;;;;;;16.67;2.50;;;21.30;55.70;;;;;;5055036;28;20141;-63
2021/10/06 05:03:25;;;;;;;14.40;2.35;;;21.30;55.80;;;;;;5053880;28;20531;-63
2021/10/06 05:05:51;;;;;;;16.75;3.38;;;21.30;55.80;;;;;;5053646;28;20041;-63
2021/10/06 05:08:17;;;;;;;17.13;3.25;;;21.30;55.90;;;;;;5034079;28;20037;-63
2021/10/06 05:10:42;;;;;;;12.38;1.95;;;21.30;55.90;;;;;;5034913;28;20109;-63
2021/10/06 05:13:08;;;;;;;16.30;2.70;;;21.20;55.80;;;;;;5043153;28;20366;-63
2021/10/06 05:15:33;;;;;;;11.68;2.50;;;21.30;55.90;;;;;;5053004;28;20577;-63
2021/10/06 05:17:59;;;;;;;12.07;2.25;;;21.30;55.90;;;;;;5053320;28;20064;-63
2021/10/06 05:20:25;;;;;;;15.02;2.70;;;21.30;55.90;;;;;;5053537;28;20410;-64
2021/10/06 05:22:52;;;;;;;15.93;2.30;;;21.30;55.90;;;;;;5052415;28;20071;-62
2021/10/06 05:25:18;;;;;;;20.80;2.50;;;21.30;56.00;;;;;;5054783;28;20051;-63
2021/10/06 05:27:44;;;;;;;10.48;1.92;;;21.30;56.00;;;;;;5051828;28;20098;-62
2021/10/06 05:30:10;;;;;;;9.45;1.90;;;21.30;55.80;;;;;;5053058;28;20041;-64
2021/10/06 05:32:36;;;;;;;13.60;2.03;;;21.30;55.80;;;;;;5053691;28;20132;-63
2021/10/06 05:35:02;;;;;;;12.80;2.20;;;21.30;55.90;;;;;;5052934;28;20123;-62
2021/10/06 05:37:28;;;;;;;13.07;2.25;;;21.20;55.70;;;;;;5055700;28;20037;-63
2021/10/06 05:39:54;;;;;;;9.60;1.63;;;21.20;55.50;;;;;;5055004;28;20044;-63
2021/10/06 05:42:20;;;;;;;8.88;1.73;;;21.30;55.70;;;;;;5050754;28;20071;-63
2021/10/06 05:44:46;;;;;;;20.35;2.53;;;21.20;55.60;;;;;;5053266;28;20043;-62
2021/10/06 05:47:12;;;;;;;14.57;2.13;;;21.20;55.20;;;;;;5051054;28;20056;-63
2021/10/06 05:49:38;;;;;;;14.35;2.45;;;21.10;54.80;;;;;;5052397;28;20106;-63
2021/10/06 05:52:03;;;;;;;12.10;2.10;;;21.10;53.30;;;;;;5053211;28;20497;-64
2021/10/06 05:54:29;;;;;;;9.75;1.80;;;20.90;52.50;;;;;;5053801;28;20041;-64
2021/10/06 05:56:55;;;;;;;8.48;1.50;;;20.90;51.40;;;;;;5053405;28;20532;-64
2021/10/06 05:59:20;;;;;;;15.93;2.45;;;20.70;50.60;;;;;;5051882;28;20105;-64
2021/10/06 06:01:46;;;;;;;9.48;1.90;;;20.70;52.00;;;;;;5053248;28;20127;-64
2021/10/06 06:04:13;;;;;;;13.77;2.40;;;20.60;52.00;;;;;;5050387;28;20068;-64
2021/10/06 06:06:43;;;;;;;11.57;1.73;;;20.60;51.80;;;;;;5052276;28;20059;-64
2021/10/06 06:09:09;;;;;;;25.60;2.38;;;20.70;52.70;;;;;;5052034;28;20055;-66
2021/10/06 06:11:35;;;;;;;19.80;2.50;;;20.80;52.40;;;;;;5052002;28;20041;-72
2021/10/06 06:14:01;;;;;;;17.10;2.28;;;20.90;54.70;;;;;;5055808;28;20724;-66
2021/10/06 06:16:26;;;;;;;17.00;1.98;;;21.10;55.10;;;;;;5055820;28;20041;-66
2021/10/06 06:18:52;;;;;;;19.23;2.13;;;21.30;55.10;;;;;;5052403;28;20203;-64
2021/10/06 06:21:18;;;;;;;11.88;1.60;;;21.40;55.10;;;;;;5057111;28;20044;-65
2021/10/06 06:23:44;;;;;;;12.10;1.90;;;21.60;55.30;;;;;;5058054;28;20132;-68
2021/10/06 06:26:10;;;;;;;17.52;2.10;;;21.70;55.80;;;;;;5055723;28;20062;-67
2021/10/06 06:28:39;;;;;;;11.23;1.85;;;21.90;56.10;;;;;;5056322;28;20033;-67
2021/10/06 06:31:06;;;;;;;10.23;1.58;;;22.00;55.80;;;;;;5058464;28;20129;-66
2021/10/06 06:33:33;;;;;;;12.80;1.70;;;22.10;56.00;;;;;;5058338;28;20078;-65
2021/10/06 06:35:59;;;;;;;13.82;1.67;;;22.30;56.60;;;;;;5055544;28;20599;-65
2021/10/06 06:42:13;;;;;;;17.00;1.83;;;22.40;54.50;;;;;;5044026;28;20144;-64
2021/10/06 06:44:38;;;;;;;20.52;1.80;;;22.40;53.60;;;;;;5054356;28;22133;-70
2021/10/06 06:47:04;;;;;;;37.47;3.75;;;22.50;53.20;;;;;;5058719;28;20362;-68
2021/10/06 06:49:30;;;;;;;15.18;2.17;;;22.50;53.60;;;;;;5057241;28;20037;-69
2021/10/06 06:51:55;;;;;;;19.70;2.97;;;22.60;53.80;;;;;;5058898;28;20119;-70
2021/10/06 06:54:22;;;;;;;15.98;1.70;;;22.70;54.60;;;;;;5054821;28;20036;-69
2021/10/06 06:56:47;;;;;;;16.80;2.20;;;22.70;54.50;;;;;;5057499;28;20371;-68
2021/10/06 06:59:13;;;;;;;20.92;1.88;;;22.80;54.80;;;;;;5058067;28;20064;-68
2021/10/06 18:56:58;;;;;;;27.83;1.73;;;21.90;60.00;;;;;;5034852;28;20429;-71
2021/10/06 18:59:24;;;;;;;9.32;1.50;;;22.00;55.80;;;;;;5024458;28;20033;-72
2021/10/06 19:01:51;;;;;;;8.23;1.40;;;22.10;56.10;;;;;;5025711;28;20033;-74
2021/10/06 19:04:17;;;;;;;9.85;1.73;;;22.30;56.00;;;;;;5019290;28;20026;-75
2021/10/06 19:06:43;;;;;;;6.00;1.27;;;22.40;56.20;;;;;;5021778;28;20055;-74
2021/10/06 19:09:08;;;;;;;11.65;1.52;;;22.50;56.00;;;;;;5021772;28;20088;-75
2021/10/06 19:11:35;;;;;;;5.00;1.15;;;22.70;56.00;;;;;;5023194;28;20029;-75
2021/10/06 19:14:06;;;;;;;6.85;1.30;;;22.80;56.40;;;;;;5030137;28;20052;-75
2021/10/06 19:16:35;;;;;;;8.68;1.48;;;22.90;56.50;;;;;;5027245;28;20084;-74
2021/10/06 19:19:01;;;;;;;8.35;1.40;;;23.00;56.00;;;;;;5026349;28;20038;-75
2021/10/06 19:21:26;;;;;;;9.18;1.35;;;23.10;56.20;;;;;;5027461;28;20040;-76
2021/10/06 19:23:52;;;;;;;10.95;1.50;;;23.20;56.20;;;;;;5024621;28;20044;-77
2021/10/06 19:26:21;;;;;;;6.57;1.30;;;23.30;56.30;;;;;;5021172;28;20561;-75
2021/10/06 19:28:48;;;;;;;6.32;1.20;;;23.30;56.20;;;;;;5024246;28;20037;-76
2021/10/06 19:31:15;;;;;;;7.50;1.17;;;23.40;56.10;;;;;;5023973;28;20087;-74
2021/10/06 19:33:41;;;;;;;5.07;1.00;;;23.50;56.30;;;;;;5021555;28;20108;-74
2021/10/06 19:36:13;;;;;;;10.70;1.15;;;23.60;56.40;;;;;;5024037;28;20033;-76
2021/10/06 19:44:05;;;;;;;4.78;1.15;;;23.80;56.40;;;;;;4937231;28;20046;-76
2021/10/06 19:46:30;;;;;;;8.68;1.20;;;23.80;56.30;;;;;;4958305;28;20101;-75
2021/10/06 19:48:56;;;;;;;5.80;1.10;;;23.90;56.60;;;;;;4961236;28;20650;-77
2021/10/06 19:51:22;;;;;;;5.68;1.10;;;23.90;56.40;;;;;;4959029;28;20045;-76
2021/10/06 19:53:47;;;;;;;6.15;1.23;;;23.90;57.10;;;;;;4975694;28;20097;-78
2021/10/06 19:56:13;;;;;;;4.95;0.90;;;24.00;56.50;;;;;;4976294;28;20062;-77
2021/10/06 19:58:39;;;;;;;7.55;1.15;;;24.00;56.60;;;;;;4988997;28;20031;-78
2021/10/06 20:01:05;;;;;;;6.75;1.05;;;24.10;56.70;;;;;;4986604;28;20070;-77
2021/10/06 20:03:30;;;;;;;4.90;1.05;;;24.10;56.60;;;;;;4989111;28;20026;-76
2021/10/06 20:05:57;;;;;;;11.23;1.25;;;24.10;56.50;;;;;;4982917;28;20038;-78
2021/10/06 20:08:24;;;;;;;5.80;0.98;;;24.20;56.80;;;;;;4970864;28;20026;-77
2021/10/06 20:10:50;;;;;;;8.07;1.33;;;24.20;56.70;;;;;;4971787;28;20041;-77
2021/10/06 20:13:15;;;;;;;9.70;1.20;;;24.20;56.70;;;;;;5354612;22;20051;-76
2021/10/06 20:15:41;;;;;;;9.40;1.65;;;24.20;56.60;;;;;;4938177;28;20041;-77
2021/10/06 20:18:07;;;;;;;21.38;1.50;;;24.20;56.80;;;;;;4949532;28;20130;-77
2021/10/06 20:20:32;;;;;;;4.60;1.02;;;24.20;56.80;;;;;;4940903;29;20035;-77
2021/10/06 20:22:58;;;;;;;8.85;1.10;;;24.20;56.70;;;;;;4940604;28;20035;-77
2021/10/06 20:25:24;;;;;;;4.88;1.00;;;24.20;56.80;;;;;;4945278;28;20042;-77
2021/10/06 20:30:35;;;;;;;4.72;1.10;;;24.30;56.20;;;;;;5041267;28;21220;-72
2021/10/06 20:33:02;;;;;;;4.57;1.15;;;24.40;56.90;;;;;;5713614;23;20024;-77
2021/10/06 20:37:55;;;;;;;6.93;1.00;;;24.40;57.00;;;;;;4992346;28;20069;-76
2021/10/06 20:40:22;;;;;;;7.88;2.35;;;24.50;57.50;;;;;;4994899;28;20500;-77
2021/10/06 20:42:47;;;;;;;12.13;1.48;;;24.50;56.90;;;;;;5023871;28;20117;-77
2021/10/06 20:45:13;;;;;;;5.25;1.20;;;24.50;56.80;;;;;;4992814;28;20113;-77
2021/10/06 20:47:55;;;;;;;17.55;1.23;;;24.50;56.30;;;;;;5050238;27;20760;-73
2021/10/06 20:50:20;;;;;;;3.67;1.00;;;24.50;56.30;;;;;;5029323;28;20026;-72
2021/10/06 20:52:47;;;;;;;7.53;1.20;;;24.50;56.50;;;;;;5030256;28;20544;-72
2021/10/06 20:55:18;;;;;;;9.15;1.30;;;24.50;56.40;;;;;;5009537;28;20061;-75
2021/10/06 20:57:48;;;;;;;4.53;1.10;;;24.50;56.40;;;;;;5009885;28;20041;-73
2021/10/06 21:00:15;;;;;;;4.55;0.98;;;24.60;56.70;;;;;;5040701;28;20050;-73
2021/10/06 21:02:42;;;;;;;5.57;1.25;;;24.60;56.40;;;;;;5011157;28;20033;-74
2021/10/06 21:05:08;;;;;;;6.43;1.10;;;24.60;56.40;;;;;;5011346;28;20072;-75
2021/10/06 21:07:34;;;;;;;5.63;1.30;;;24.60;56.40;;;;;;4998350;28;20131;-73
2021/10/06 21:10:00;;;;;;;4.28;0.98;;;24.60;56.40;;;;;;5030490;28;20127;-74
2021/10/06 21:12:27;;;;;;;4.43;0.90;;;24.60;56.40;;;;;;5030876;28;20056;-75
2021/10/06 21:14:52;;;;;;;4.75;1.13;;;24.70;56.50;;;;;;5030327;28;20120;-74
2021/10/06 21:17:18;;;;;;;4.22;1.00;;;24.60;56.30;;;;;;5034690;28;20119;-74
2021/10/06 21:19:49;;;;;;;3.60;0.93;;;24.70;56.40;;;;;;5031634;28;20091;-71
2021/10/06 21:22:16;;;;;;;2.63;0.68;;;24.70;56.30;;;;;;5030894;28;20037;-73
2021/10/06 21:24:43;;;;;;;3.45;0.90;;;24.70;56.40;;;;;;5030327;28;20033;-72
2021/10/06 21:27:08;;;;;;;3.72;0.80;;;24.80;56.40;;;;;;5028605;28;20040;-74
2021/10/06 21:29:34;;;;;;;8.85;0.88;;;24.80;56.60;;;;;;5045628;28;20481;-73
2021/10/06 21:32:00;;;;;;;3.05;0.80;;;24.80;56.40;;;;;;5037905;28;20080;-73
2021/10/06 21:34:25;;;;;;;2.58;0.80;;;24.80;56.50;;;;;;5031795;28;20041;-72
2021/10/06 21:36:51;;;;;;;5.40;0.90;;;24.80;56.40;;;;;;5029126;28;20033;-74
2021/10/06 21:39:17;;;;;;;4.18;0.80;;;24.80;56.40;;;;;;5028632;28;20041;-74
2021/10/06 21:41:43;;;;;;;3.97;1.00;;;24.80;56.40;;;;;;5030020;28;20065;-73
2021/10/06 21:44:08;;;;;;;3.70;0.95;;;24.90;56.50;;;;;;5029744;28;20060;-75
2021/10/06 21:46:34;;;;;;;2.63;0.70;;;24.90;56.50;;;;;;5031447;28;20095;-76
2021/10/06 21:49:00;;;;;;;2.38;0.70;;;24.90;56.70;;;;;;5029187;28;20375;-73
2021/10/06 21:51:26;;;;;;;7.97;1.20;;;24.90;57.00;;;;;;5030006;28;20049;-75
2021/10/06 21:53:51;;;;;;;3.60;0.88;;;24.90;56.20;;;;;;5030246;28;20034;-75
2021/10/06 21:56:17;;;;;;;3.15;0.80;;;24.80;56.10;;;;;;5030421;28;20048;-75
2021/10/06 21:58:43;;;;;;;2.40;0.77;;;24.60;56.00;;;;;;5018520;28;20038;-73
2021/10/06 22:01:08;;;;;;;5.22;0.90;;;24.50;56.00;;;;;;5018144;28;20045;-75
2021/10/06 22:03:34;;;;;;;6.43;0.90;;;24.40;56.00;;;;;;5018143;28;20030;-75
2021/10/06 22:05:59;;;;;;;4.32;0.90;;;24.30;56.00;;;;;;5017526;28;20075;-74
2021/10/06 22:08:25;;;;;;;4.00;0.90;;;24.20;56.00;;;;;;5025103;28;20038;-72
2021/10/06 22:10:51;;;;;;;4.35;0.98;;;24.10;56.00;;;;;;5031071;28;20453;-72
2021/10/06 22:13:16;;;;;;;2.88;1.08;;;24.10;56.10;;;;;;5015196;28;20136;-72
2021/10/06 22:15:42;;;;;;;4.43;0.85;;;24.00;56.00;;;;;;5018682;28;20038;-72
2021/10/06 22:18:08;;;;;;;3.70;0.75;;;23.90;56.00;;;;;;5014001;28;20030;-72
2021/10/06 22:20:34;;;;;;;3.58;0.85;;;23.90;56.20;;;;;;5024202;28;20497;-72
2021/10/06 22:23:00;;;;;;;4.57;0.80;;;23.80;56.20;;;;;;5020300;28;20091;-72
2021/10/06 22:25:25;;;;;;;3.38;0.82;;;23.80;56.40;;;;;;5017273;28;20040;-72
2021/10/06 22:27:51;;;;;;;5.05;1.15;;;23.70;56.30;;;;;;5014593;28;20049;-73
2021/10/06 22:30:18;;;;;;;3.45;0.98;;;23.60;56.20;;;;;;5015903;28;20071;-72
2021/10/06 22:32:44;;;;;;;3.42;0.90;;;23.60;56.30;;;;;;5016589;28;20050;-72
2021/10/06 22:35:12;;;;;;;3.38;0.70;;;23.60;56.40;;;;;;5016518;28;20494;-73
2021/10/06 22:37:38;;;;;;;5.63;0.90;;;23.60;56.40;;;;;;5013624;28;20037;-73
2021/10/06 22:40:05;;;;;;;2.67;0.80;;;23.60;57.20;;;;;;5012854;28;20695;-72
2021/10/06 22:42:31;;;;;;;3.10;0.80;;;23.40;56.30;;;;;;5014744;28;20049;-72
2021/10/06 22:44:57;;;;;;;5.80;0.90;;;23.40;56.40;;;;;;5015021;28;20034;-72
2021/10/06 22:47:23;;;;;;;6.75;1.20;;;23.40;56.50;;;;;;5015697;28;20409;-72
2021/10/06 22:49:50;;;;;;;4.60;0.80;;;23.40;56.50;;;;;;5015591;28;20159;-72
2021/10/06 22:52:15;;;;;;;4.70;0.82;;;23.40;56.60;;;;;;5015417;28;20091;-72
2021/10/06 22:54:41;;;;;;;3.67;1.00;;;23.30;56.40;;;;;;5015783;28;20037;-72
2021/10/06 22:57:06;;;;;;;2.72;0.63;;;23.30;56.60;;;;;;5015902;28;20045;-72
2021/10/06 22:59:32;;;;;;;4.60;0.77;;;23.30;56.70;;;;;;5012272;28;20045;-73
2021/10/06 23:01:58;;;;;;;4.38;1.08;;;23.20;56.50;;;;;;5016101;28;20379;-72
2021/10/06 23:04:23;;;;;;;2.65;0.63;;;23.30;56.80;;;;;;5013723;28;20536;-72
2021/10/06 23:06:49;;;;;;;3.88;1.00;;;23.20;56.70;;;;;;5015719;28;20037;-72
2021/10/06 23:09:16;;;;;;;2.75;0.90;;;23.20;56.70;;;;;;5022078;28;20026;-73
2021/10/06 23:11:42;;;;;;;3.88;0.80;;;23.20;56.70;;;;;;5018924;28;20041;-72
2021/10/06 23:14:08;;;;;;;3.63;0.90;;;23.10;56.60;;;;;;5013799;28;20041;-73
2021/10/06 23:16:35;;;;;;;3.08;0.85;;;23.10;56.60;;;;;;5015427;28;20117;-72
2021/10/06 23:19:01;;;;;;;3.95;0.80;;;23.10;56.70;;;;;;5015948;28;20048;-73
2021/10/06 23:21:27;;;;;;;4.32;1.13;;;23.00;56.50;;;;;;5014873;28;20056;-73
2021/10/06 23:23:53;;;;;;;3.47;0.95;;;23.00;56.60;;;;;;5014965;28;20038;-73
2021/10/06 23:26:18;;;;;;;2.50;0.60;;;23.00;56.70;;;;;;5003951;28;20050;-73
2021/10/06 23:28:44;;;;;;;2.45;0.88;;;23.00;56.70;;;;;;5014679;28;20038;-73
2021/10/06 23:31:12;;;;;;;3.00;0.80;;;23.00;56.70;;;;;;5018613;28;20099;-73
2021/10/06 23:33:37;;;;;;;4.05;0.90;;;23.00;56.80;;;;;;5012904;28;20411;-72
2021/10/06 23:36:03;;;;;;;2.33;0.73;;;22.90;56.70;;;;;;5016481;28;20048;-73
2021/10/06 23:38:30;;;;;;;2.50;0.85;;;22.90;56.70;;;;;;5020641;28;20136;-73
2021/10/06 23:40:56;;;;;;;2.55;0.80;;;22.90;56.70;;;;;;5014286;28;20151;-73
2021/10/06 23:43:22;;;;;;;4.70;0.77;;;22.90;56.80;;;;;;5019992;28;20088;-72
2021/10/06 23:45:48;;;;;;;2.92;0.90;;;22.90;56.80;;;;;;5019248;28;20038;-72
2021/10/06 23:48:14;;;;;;;3.60;1.10;;;22.90;56.80;;;;;;5012654;28;20036;-73
2021/10/06 23:50:40;;;;;;;3.38;0.88;;;22.80;56.70;;;;;;5015983;28;20129;-72
2021/10/06 23:53:06;;;;;;;3.55;1.00;;;22.80;56.80;;;;;;5016710;28;20612;-72
2021/10/06 23:55:32;;;;;;;3.47;0.85;;;22.80;56.80;;;;;;5013208;28;20029;-73
2021/10/06 23:57:57;;;;;;;3.92;1.05;;;22.80;56.80;;;;;;5017178;28;20099;-72
